Terminal Aerodrome Forecast
Issued by NWS Pueblo, CO

Home | Current Version | Previous Version | Text Only | Print | Product List | Glossary On
Versions: 1 2 3 4 5 6 7 8 9 10 11 12 13 14 15 16 17 18 19 20
000
FTUS45 KPUB 010354 AAB
TAFCOS
TAF AMD
KCOS 010354Z 0104/0124 15009KT P6SM BKN020 BKN035
     FM010600 11008KT 3SM BR BKN010
     FM011600 15007KT P6SM FEW015 BKN030
     FM012000 17012KT P6SM VCTS SCT060CB BKN100=

USA.gov is the U.S. government's official web portal to all federal, state and local government web resources and services.